Glykofilousa — SVA4543 — position and weather

sailwx.info

Track history (hours):
 
Tides and Currents Weather Stations Pressure Air Temp Water Temp Dewpoint Dewpoint Depression Visibility Wind Speed Wind Dir Waves Ship Positions

Glykofilousa

Last reported at 2017-Dec-11 01:51 UTC. Time now 2017-Dec-13 20:24 UTC.
Position N 37°51' E 023°40'.

Length 27 m; draft 2.5 m.

Type: Fishing. MMSI: 241063000.

Date/timePositionNaut miles runAvg speedWind from/ knotsBaromVisibWave heightAir tempDewpointWater temp
2017-Dec-11 01:51N 37°51' E 023°40'3 9.6
2017-Dec-11 01:31N 37°54' E 023°38'4 7.3
2017-Dec-11 01:00N 37°57' E 023°37'0 0.1
2017-Dec-11 00:30N 37°57' E 023°37'0 0.0
2017-Dec-11 00:00N 37°57' E 023°37'0 0.0
2017-Dec-10 23:31N 37°57' E 023°37'0 0.0
2017-Dec-10 23:00N 37°57' E 023°37'0 0.0
2017-Dec-10 22:30N 37°57' E 023°37'0 0.0
2017-Dec-10 22:01N 37°57' E 023°37'0 0.0
2017-Dec-10 21:31N 37°57' E 023°37'0 0.0
2017-Dec-10 21:00N 37°57' E 023°37'0 0.0
2017-Dec-10 20:31N 37°57' E 023°37'0 0.0
2017-Dec-10 20:00N 37°57' E 023°37'0 0.0
2017-Dec-10 19:30N 37°57' E 023°37'0 0.0
2017-Dec-10 19:00N 37°57' E 023°37'0 0.0
2017-Dec-10 18:31N 37°57' E 023°37'0 0.0
2017-Dec-10 18:00N 37°57' E 023°37'3 6.0
2017-Dec-10 17:31N 37°54' E 023°37'5 9.4
2017-Dec-10 17:01N 37°50' E 023°38'2 3.6
2017-Dec-10 16:30N 37°48' E 023°37'1 2.8
2017-Dec-10 16:01N 37°47' E 023°36'2 3.6
2017-Dec-10 15:24N 37°48' E 023°33'1 3.0
2017-Dec-10 14:56N 37°48' E 023°32'1 2.6
2017-Dec-10 14:30N 37°49' E 023°31'2 2.9
2017-Dec-10 13:48N 37°50' E 023°29'7 1.2
2017-Dec-10 07:43N 37°54' E 023°21'5 2.7
2017-Dec-10 05:49N 37°56' E 023°15'1 2.9
2017-Dec-10 05:27N 37°56' E 023°14'1 2.8
2017-Dec-10 04:58N 37°55' E 023°12'4 0.2
2017-Dec-09 06:47N 37°52' E 023°16'1 2.9
2017-Dec-09 06:23N 37°53' E 023°15'1 2.9
2017-Dec-09 06:00N 37°54' E 023°14'1 3.0
2017-Dec-09 05:30N 37°54' E 023°12'1 2.9
2017-Dec-09 05:00N 37°53' E 023°11'1 2.9
2017-Dec-09 04:30N 37°51' E 023°11'  
2017-Dec-04 10:23N 37°54' E 023°21'6 2.4
2017-Dec-04 08:00N 37°56' E 023°14'1 2.6
2017-Dec-04 07:28N 37°56' E 023°13'1 1.2
2017-Dec-04 06:58N 37°56' E 023°13'14 3.7
2017-Dec-04 03:12N 37°51' E 023°30'2 9.3
2017-Dec-04 03:00N 37°52' E 023°32'4 8.7
2017-Dec-04 02:30N 37°56' E 023°34'3 5.1
2017-Dec-04 02:00N 37°57' E 023°37'0 0.0
2017-Dec-04 01:30N 37°57' E 023°37'0 0.0
2017-Dec-04 01:00N 37°57' E 023°37'0 0.0
2017-Dec-04 00:30N 37°57' E 023°37'0 0.0
2017-Dec-04 00:00N 37°57' E 023°37'0 0.0
2017-Dec-03 23:30N 37°57' E 023°37'0 0.0
2017-Dec-03 23:00N 37°57' E 023°37'0 0.0
2017-Dec-03 22:30N 37°57' E 023°37'0 0.0
2017-Dec-03 22:00N 37°57' E 023°37'0 0.0
2017-Dec-03 21:30N 37°57' E 023°37'0 0.0
2017-Dec-03 21:00N 37°57' E 023°37'0 0.0
2017-Dec-03 20:30N 37°57' E 023°37'0 0.0
2017-Dec-03 20:00N 37°57' E 023°37'0 0.0
2017-Dec-03 19:30N 37°57' E 023°37'0 0.0
2017-Dec-03 19:00N 37°57' E 023°37'0 0.0
2017-Dec-03 18:30N 37°57' E 023°37'0 0.0
2017-Dec-03 18:00N 37°57' E 023°37'2 3.7
2017-Dec-03 17:30N 37°56' E 023°35'4 8.9
2017-Dec-03 17:00N 37°53' E 023°31'12 4.4
2017-Dec-03 14:17N 37°54' E 023°16'1 2.6
2017-Dec-03 13:47N 37°54' E 023°14'1 3.0
2017-Dec-03 13:30N 37°54' E 023°13'1 2.9
2017-Dec-03 13:00N 37°54' E 023°12'1 3.0
2017-Dec-03 12:30N 37°54' E 023°10'2 3.4
2017-Dec-03 12:00N 37°53' E 023°08'1 1.2
2017-Dec-03 11:30N 37°53' E 023°08'1 2.9
2017-Dec-03 11:00N 37°53' E 023°10'1 2.9
2017-Dec-03 10:30N 37°53' E 023°12'2 2.9
2017-Dec-03 09:59N 37°53' E 023°14'2 0.5
2017-Dec-03 05:40N 37°51' E 023°15'1 3.0
2017-Dec-03 05:24N 37°51' E 023°14'1 2.9
2017-Dec-03 04:59N 37°52' E 023°12'1 2.9
2017-Dec-03 04:30N 37°53' E 023°11'0 0.0
2017-Dec-02 15:11N 37°53' E 023°11'1 3.1
2017-Dec-02 14:59N 37°53' E 023°11'2 3.2
2017-Dec-02 14:30N 37°55' E 023°12'2 3.0
2017-Dec-02 14:00N 37°55' E 023°14'2 3.0
2017-Dec-02 13:30N 37°54' E 023°16'3 0.7
2017-Dec-02 09:17N 37°51' E 023°15'1 3.0
2017-Dec-02 08:58N 37°52' E 023°14'1 3.0
2017-Dec-02 08:30N 37°52' E 023°12'2 3.4
2017-Dec-02 08:00N 37°53' E 023°10'0 1.0
2017-Dec-02 07:30N 37°53' E 023°11'14 3.9
2017-Dec-02 03:53N 37°50' E 023°28'3 6.3
2017-Dec-02 03:21N 37°50' E 023°33'3 7.7
2017-Dec-02 03:00N 37°52' E 023°34'4 7.7
2017-Dec-02 02:30N 37°56' E 023°35'2 4.1
2017-Dec-02 02:00N 37°57' E 023°37'0 0.0
2017-Dec-02 01:30N 37°57' E 023°37'0 0.0
2017-Dec-02 01:00N 37°57' E 023°37'0 0.0
2017-Dec-02 00:30N 37°57' E 023°37'0 0.0
2017-Dec-02 00:00N 37°57' E 023°37'0 0.0
2017-Dec-01 23:30N 37°57' E 023°37'0 0.0
2017-Dec-01 23:00N 37°57' E 023°37'0 0.0
2017-Dec-01 22:30N 37°57' E 023°37'0 0.0
2017-Dec-01 22:00N 37°57' E 023°37'0 0.0
2017-Dec-01 21:27N 37°57' E 023°37'0 0.0
2017-Dec-01 20:58N 37°57' E 023°37'0 0.0
2017-Dec-01 20:26N 37°57' E 023°37'0 0.0
2017-Dec-01 19:58N 37°57' E 023°37'0 0.0
2017-Dec-01 19:29N 37°57' E 023°37'0 0.0
2017-Dec-01 18:59N 37°57' E 023°37'0 0.0
2017-Dec-01 18:23N 37°57' E 023°37'1 1.3
2017-Dec-01 17:57N 37°57' E 023°36'6 7.0
2017-Dec-01 17:08N 38°01' E 023°31'1 9.3
2017-Dec-01 17:00N 38°01' E 023°29'4 7.2
2017-Dec-01 16:30N 37°58' E 023°26'10 3.8
2017-Dec-01 13:57N 37°54' E 023°15'1 3.0
2017-Dec-01 13:30N 37°53' E 023°13'1 3.1
2017-Dec-01 13:00N 37°53' E 023°11'2 3.0
2017-Dec-01 12:30N 37°51' E 023°11'0 0.5
2017-Dec-01 11:33N 37°51' E 023°12'0 3.0
2017-Dec-01 11:26N 37°51' E 023°11'1 3.0
2017-Dec-01 11:00N 37°52' E 023°11'1 2.9
2017-Dec-01 10:30N 37°54' E 023°10'2 3.1
2017-Dec-01 10:00N 37°55' E 023°11'1 2.9
2017-Dec-01 09:30N 37°56' E 023°13'2 3.0
2017-Dec-01 09:00N 37°56' E 023°15'3 1.3
2017-Dec-01 06:39N 37°53' E 023°17'0 3.0
2017-Dec-01 06:30N 37°53' E 023°16'2 2.6
2017-Dec-01 05:55N 37°52' E 023°14'1 3.0
2017-Dec-01 05:30N 37°51' E 023°13'1 2.7
2017-Dec-01 05:00N 37°52' E 023°11'1 3.0
2017-Dec-01 04:31N 37°53' E 023°10'2 3.5
2017-Dec-01 04:01N 37°53' E 023°08'0 0.6
2017-Dec-01 03:31N 37°53' E 023°08'2 3.3
2017-Dec-01 03:01N 37°54' E 023°10'1 1.6
2017-Dec-01 02:31N 37°55' E 023°10'1 2.8
2017-Dec-01 02:00N 37°55' E 023°12'  
Track history (hours):
 
Tides and Currents Weather Stations Pressure Air Temp Water Temp Dewpoint Dewpoint Depression Visibility Wind Speed Wind Dir Waves Ship Positions

Glykofilousa

Last reported at 2017-Dec-11 01:51 UTC. Time now 2017-Dec-13 20:24 UTC.
Position N 37°51' E 023°40'.

Length 27 m; draft 2.5 m.

Type: Fishing. MMSI: 241063000.

Date/timePositionNaut miles runAvg speedWind from/ knotsBaromVisibWave heightAir tempDewpointWater temp
2017-Dec-11 01:51N 37°51' E 023°40'3 9.6
2017-Dec-11 01:31N 37°54' E 023°38'4 7.3
2017-Dec-11 01:00N 37°57' E 023°37'0 0.1
2017-Dec-11 00:30N 37°57' E 023°37'0 0.0
2017-Dec-11 00:00N 37°57' E 023°37'0 0.0
2017-Dec-10 23:31N 37°57' E 023°37'0 0.0
2017-Dec-10 23:00N 37°57' E 023°37'0 0.0
2017-Dec-10 22:30N 37°57' E 023°37'0 0.0
2017-Dec-10 22:01N 37°57' E 023°37'0 0.0
2017-Dec-10 21:31N 37°57' E 023°37'0 0.0
2017-Dec-10 21:00N 37°57' E 023°37'0 0.0
2017-Dec-10 20:31N 37°57' E 023°37'0 0.0
2017-Dec-10 20:00N 37°57' E 023°37'0 0.0
2017-Dec-10 19:30N 37°57' E 023°37'0 0.0
2017-Dec-10 19:00N 37°57' E 023°37'0 0.0
2017-Dec-10 18:31N 37°57' E 023°37'0 0.0
2017-Dec-10 18:00N 37°57' E 023°37'3 6.0
2017-Dec-10 17:31N 37°54' E 023°37'5 9.4
2017-Dec-10 17:01N 37°50' E 023°38'2 3.6
2017-Dec-10 16:30N 37°48' E 023°37'1 2.8
2017-Dec-10 16:01N 37°47' E 023°36'2 3.6
2017-Dec-10 15:24N 37°48' E 023°33'1 3.0
2017-Dec-10 14:56N 37°48' E 023°32'1 2.6
2017-Dec-10 14:30N 37°49' E 023°31'2 2.9
2017-Dec-10 13:48N 37°50' E 023°29'7 1.2
2017-Dec-10 07:43N 37°54' E 023°21'5 2.7
2017-Dec-10 05:49N 37°56' E 023°15'1 2.9
2017-Dec-10 05:27N 37°56' E 023°14'1 2.8
2017-Dec-10 04:58N 37°55' E 023°12'4 0.2
2017-Dec-09 06:47N 37°52' E 023°16'1 2.9
2017-Dec-09 06:23N 37°53' E 023°15'1 2.9
2017-Dec-09 06:00N 37°54' E 023°14'1 3.0
2017-Dec-09 05:30N 37°54' E 023°12'1 2.9
2017-Dec-09 05:00N 37°53' E 023°11'1 2.9
2017-Dec-09 04:30N 37°51' E 023°11'  
2017-Dec-04 10:23N 37°54' E 023°21'6 2.4
2017-Dec-04 08:00N 37°56' E 023°14'1 2.6
2017-Dec-04 07:28N 37°56' E 023°13'1 1.2
2017-Dec-04 06:58N 37°56' E 023°13'14 3.7
2017-Dec-04 03:12N 37°51' E 023°30'2 9.3
2017-Dec-04 03:00N 37°52' E 023°32'4 8.7
2017-Dec-04 02:30N 37°56' E 023°34'3 5.1
2017-Dec-04 02:00N 37°57' E 023°37'0 0.0
2017-Dec-04 01:30N 37°57' E 023°37'0 0.0
2017-Dec-04 01:00N 37°57' E 023°37'0 0.0
2017-Dec-04 00:30N 37°57' E 023°37'0 0.0
2017-Dec-04 00:00N 37°57' E 023°37'0 0.0
2017-Dec-03 23:30N 37°57' E 023°37'0 0.0
2017-Dec-03 23:00N 37°57' E 023°37'0 0.0
2017-Dec-03 22:30N 37°57' E 023°37'0 0.0
2017-Dec-03 22:00N 37°57' E 023°37'0 0.0
2017-Dec-03 21:30N 37°57' E 023°37'0 0.0
2017-Dec-03 21:00N 37°57' E 023°37'0 0.0
2017-Dec-03 20:30N 37°57' E 023°37'0 0.0
2017-Dec-03 20:00N 37°57' E 023°37'0 0.0
2017-Dec-03 19:30N 37°57' E 023°37'0 0.0
2017-Dec-03 19:00N 37°57' E 023°37'0 0.0
2017-Dec-03 18:30N 37°57' E 023°37'0 0.0
2017-Dec-03 18:00N 37°57' E 023°37'2 3.7
2017-Dec-03 17:30N 37°56' E 023°35'4 8.9
2017-Dec-03 17:00N 37°53' E 023°31'12 4.4
2017-Dec-03 14:17N 37°54' E 023°16'1 2.6
2017-Dec-03 13:47N 37°54' E 023°14'1 3.0
2017-Dec-03 13:30N 37°54' E 023°13'1 2.9
2017-Dec-03 13:00N 37°54' E 023°12'1 3.0
2017-Dec-03 12:30N 37°54' E 023°10'2 3.4
2017-Dec-03 12:00N 37°53' E 023°08'1 1.2
2017-Dec-03 11:30N 37°53' E 023°08'1 2.9
2017-Dec-03 11:00N 37°53' E 023°10'1 2.9
2017-Dec-03 10:30N 37°53' E 023°12'2 2.9
2017-Dec-03 09:59N 37°53' E 023°14'2 0.5
2017-Dec-03 05:40N 37°51' E 023°15'1 3.0
2017-Dec-03 05:24N 37°51' E 023°14'1 2.9
2017-Dec-03 04:59N 37°52' E 023°12'1 2.9
2017-Dec-03 04:30N 37°53' E 023°11'0 0.0
2017-Dec-02 15:11N 37°53' E 023°11'1 3.1
2017-Dec-02 14:59N 37°53' E 023°11'2 3.2
2017-Dec-02 14:30N 37°55' E 023°12'2 3.0
2017-Dec-02 14:00N 37°55' E 023°14'2 3.0
2017-Dec-02 13:30N 37°54' E 023°16'3 0.7
2017-Dec-02 09:17N 37°51' E 023°15'1 3.0
2017-Dec-02 08:58N 37°52' E 023°14'1 3.0
2017-Dec-02 08:30N 37°52' E 023°12'2 3.4
2017-Dec-02 08:00N 37°53' E 023°10'0 1.0
2017-Dec-02 07:30N 37°53' E 023°11'14 3.9
2017-Dec-02 03:53N 37°50' E 023°28'3 6.3
2017-Dec-02 03:21N 37°50' E 023°33'3 7.7
2017-Dec-02 03:00N 37°52' E 023°34'4 7.7
2017-Dec-02 02:30N 37°56' E 023°35'2 4.1
2017-Dec-02 02:00N 37°57' E 023°37'0 0.0
2017-Dec-02 01:30N 37°57' E 023°37'0 0.0
2017-Dec-02 01:00N 37°57' E 023°37'0 0.0
2017-Dec-02 00:30N 37°57' E 023°37'0 0.0
2017-Dec-02 00:00N 37°57' E 023°37'0 0.0
2017-Dec-01 23:30N 37°57' E 023°37'0 0.0
2017-Dec-01 23:00N 37°57' E 023°37'0 0.0
2017-Dec-01 22:30N 37°57' E 023°37'0 0.0
2017-Dec-01 22:00N 37°57' E 023°37'0 0.0
2017-Dec-01 21:27N 37°57' E 023°37'0 0.0
2017-Dec-01 20:58N 37°57' E 023°37'0 0.0
2017-Dec-01 20:26N 37°57' E 023°37'0 0.0
2017-Dec-01 19:58N 37°57' E 023°37'0 0.0
2017-Dec-01 19:29N 37°57' E 023°37'0 0.0
2017-Dec-01 18:59N 37°57' E 023°37'0 0.0
2017-Dec-01 18:23N 37°57' E 023°37'1 1.3
2017-Dec-01 17:57N 37°57' E 023°36'6 7.0
2017-Dec-01 17:08N 38°01' E 023°31'1 9.3
2017-Dec-01 17:00N 38°01' E 023°29'4 7.2
2017-Dec-01 16:30N 37°58' E 023°26'10 3.8
2017-Dec-01 13:57N 37°54' E 023°15'1 3.0
2017-Dec-01 13:30N 37°53' E 023°13'1 3.1
2017-Dec-01 13:00N 37°53' E 023°11'2 3.0
2017-Dec-01 12:30N 37°51' E 023°11'0 0.5
2017-Dec-01 11:33N 37°51' E 023°12'0 3.0
2017-Dec-01 11:26N 37°51' E 023°11'1 3.0
2017-Dec-01 11:00N 37°52' E 023°11'1 2.9
2017-Dec-01 10:30N 37°54' E 023°10'2 3.1
2017-Dec-01 10:00N 37°55' E 023°11'1 2.9
2017-Dec-01 09:30N 37°56' E 023°13'2 3.0
2017-Dec-01 09:00N 37°56' E 023°15'3 1.3
2017-Dec-01 06:39N 37°53' E 023°17'0 3.0
2017-Dec-01 06:30N 37°53' E 023°16'2 2.6
2017-Dec-01 05:55N 37°52' E 023°14'1 3.0
2017-Dec-01 05:30N 37°51' E 023°13'1 2.7
2017-Dec-01 05:00N 37°52' E 023°11'1 3.0
2017-Dec-01 04:31N 37°53' E 023°10'2 3.5
2017-Dec-01 04:01N 37°53' E 023°08'0 0.6
2017-Dec-01 03:31N 37°53' E 023°08'2 3.3
2017-Dec-01 03:01N 37°54' E 023°10'1 1.6
2017-Dec-01 02:31N 37°55' E 023°10'1 2.8
2017-Dec-01 02:00N 37°55' E 023°12'  

Dump ship's entire track history